createdAt,value
2023-05-21T00:01:39.316Z,10.60
2023-05-21T00:04:07.734Z,10.68
2023-05-21T00:06:36.599Z,11.27
2023-05-21T00:09:04.872Z,11.18
2023-05-21T00:11:33.040Z,10.02
2023-05-21T00:14:02.371Z,10.60
2023-05-21T00:16:30.326Z,9.43
2023-05-21T00:18:58.345Z,10.43
2023-05-21T00:21:26.756Z,10.30
2023-05-21T00:23:56.525Z,9.55
2023-05-21T00:26:25.089Z,9.60
2023-05-21T00:28:52.935Z,9.80
2023-05-21T00:31:22.791Z,9.43
2023-05-21T00:33:50.778Z,10.15
2023-05-21T00:36:18.743Z,10.05
2023-05-21T00:38:47.102Z,9.30
2023-05-21T00:41:15.020Z,10.60
2023-05-21T00:43:44.538Z,10.15
2023-05-21T00:46:16.646Z,10.05
2023-05-21T00:48:47.310Z,10.30
2023-05-21T00:51:16.058Z,9.77
2023-05-21T00:53:45.436Z,9.80
2023-05-21T00:56:13.337Z,9.30
2023-05-21T00:58:42.113Z,9.55
2023-05-21T01:01:13.635Z,8.40
2023-05-21T01:03:42.076Z,8.85
2023-05-21T01:06:13.994Z,8.15
2023-05-21T01:08:42.897Z,8.75
2023-05-21T01:11:11.888Z,8.75
2023-05-21T01:13:41.360Z,9.13
2023-05-21T01:16:10.133Z,9.15
2023-05-21T01:18:39.083Z,9.07
2023-05-21T01:21:07.772Z,8.88
2023-05-21T01:23:37.153Z,8.25
2023-05-21T01:26:05.142Z,8.52
2023-05-21T01:28:34.483Z,8.95
2023-05-21T01:31:11.861Z,8.40
2023-05-21T01:33:48.650Z,8.25
2023-05-21T01:36:24.280Z,8.75
2023-05-21T01:39:01.637Z,8.73
2023-05-21T01:41:34.411Z,8.48
2023-05-21T01:44:04.661Z,8.45
2023-05-21T01:46:38.299Z,8.15
2023-05-21T01:49:07.035Z,8.63
2023-05-21T01:51:35.612Z,8.15
2023-05-21T01:54:05.335Z,7.80
2023-05-21T01:56:33.983Z,7.68
2023-05-21T01:59:02.065Z,8.13
2023-05-21T02:01:30.728Z,8.10
2023-05-21T02:03:59.045Z,8.15
2023-05-21T02:06:27.009Z,7.63
2023-05-21T02:08:55.615Z,7.70
2023-05-21T02:11:25.338Z,7.10
2023-05-21T02:13:54.589Z,7.85
2023-05-21T02:16:22.641Z,7.93
2023-05-21T02:18:52.327Z,7.60
2023-05-21T02:21:20.774Z,7.32
2023-05-21T02:23:48.814Z,7.72
2023-05-21T02:26:17.507Z,7.60
2023-05-21T02:28:47.060Z,7.90
2023-05-21T02:31:15.090Z,7.65
2023-05-21T02:33:43.502Z,7.60
2023-05-21T02:36:13.365Z,8.23
2023-05-21T02:38:43.888Z,8.00
2023-05-21T02:41:12.206Z,7.80
2023-05-21T02:43:40.106Z,8.52
2023-05-21T02:46:09.561Z,7.68
2023-05-21T02:48:37.752Z,7.82
2023-05-21T02:51:05.555Z,7.95
2023-05-21T02:53:33.485Z,8.48
2023-05-21T02:56:01.464Z,7.53
2023-05-21T02:58:29.434Z,8.88
2023-05-21T03:00:57.271Z,7.85
2023-05-21T03:03:26.621Z,8.02
2023-05-21T03:05:54.538Z,7.45
2023-05-21T03:08:22.630Z,8.20
2023-05-21T03:10:50.465Z,8.05
2023-05-21T03:13:18.330Z,7.65
2023-05-21T03:15:46.635Z,8.50
2023-05-21T03:18:14.609Z,8.10
2023-05-21T03:20:45.602Z,8.50
2023-05-21T03:23:16.438Z,8.13
2023-05-21T03:25:45.971Z,7.55
2023-05-21T03:28:13.961Z,7.88
2023-05-21T03:30:42.037Z,8.95
2023-05-21T03:33:11.203Z,8.57
2023-05-21T03:35:39.233Z,8.02
2023-05-21T03:38:08.690Z,8.15
2023-05-21T03:40:36.981Z,7.95
2023-05-21T03:43:04.872Z,8.40
2023-05-21T03:45:32.686Z,7.90
2023-05-21T03:48:02.066Z,7.90
2023-05-21T03:50:30.178Z,8.65
2023-05-21T03:52:58.010Z,8.10
2023-05-21T03:55:27.368Z,9.13
2023-05-21T03:57:55.266Z,8.13
2023-05-21T04:00:23.130Z,8.70
2023-05-21T04:02:51.080Z,8.68
2023-05-21T04:05:19.163Z,8.68
2023-05-21T04:07:47.528Z,8.65
2023-05-21T04:10:16.504Z,7.63
2023-05-21T04:12:46.141Z,8.93
2023-05-21T04:15:14.606Z,8.02
2023-05-21T04:17:42.570Z,9.30
2023-05-21T04:20:11.889Z,7.97
2023-05-21T04:22:39.686Z,9.45
2023-05-21T04:25:08.157Z,8.25
2023-05-21T04:27:36.517Z,9.13
2023-05-21T04:30:06.921Z,8.80
2023-05-21T04:32:35.056Z,9.30
2023-05-21T04:35:04.316Z,9.30
2023-05-21T04:37:35.090Z,9.07
2023-05-21T04:40:03.296Z,8.10
2023-05-21T04:42:33.000Z,8.68
2023-05-21T04:45:00.822Z,9.30
2023-05-21T04:47:35.575Z,9.30
2023-05-21T04:50:04.578Z,8.68
2023-05-21T04:52:34.742Z,9.02
2023-05-21T04:55:03.042Z,9.05
2023-05-21T04:57:30.975Z,8.50
2023-05-21T04:59:58.850Z,10.18
2023-05-21T05:02:26.709Z,9.20
2023-05-21T05:04:56.008Z,9.23
2023-05-21T05:07:23.934Z,9.00
2023-05-21T05:09:51.940Z,8.57
2023-05-21T05:12:19.742Z,8.52
2023-05-21T05:14:47.626Z,9.50
2023-05-21T05:17:15.815Z,8.75
2023-05-21T05:19:43.824Z,9.25
2023-05-21T05:22:13.697Z,9.43
2023-05-21T05:24:41.871Z,9.23
2023-05-21T05:27:09.781Z,8.85
2023-05-21T05:29:38.115Z,9.10
2023-05-21T05:32:06.639Z,8.43
2023-05-21T05:34:34.480Z,9.60
2023-05-21T05:37:04.386Z,10.35
2023-05-21T05:39:33.655Z,9.85
2023-05-21T05:42:01.628Z,10.13
2023-05-21T05:44:29.598Z,10.15
2023-05-21T05:46:57.467Z,9.93
2023-05-21T05:49:25.310Z,10.00
2023-05-21T05:51:53.264Z,9.43
2023-05-21T05:54:21.118Z,9.23
2023-05-21T05:56:50.446Z,8.98
2023-05-21T05:59:18.327Z,10.00
2023-05-21T06:01:46.203Z,9.20
2023-05-21T06:04:14.105Z,9.88
2023-05-21T06:06:42.124Z,9.40
2023-05-21T06:09:10.004Z,9.80
2023-05-21T06:11:38.478Z,9.48
2023-05-21T06:14:07.741Z,9.25
2023-05-21T06:16:37.199Z,9.73
2023-05-21T06:19:05.093Z,9.80
2023-05-21T06:21:32.986Z,9.93
2023-05-21T06:24:00.974Z,10.43
2023-05-21T06:26:28.830Z,10.15
2023-05-21T06:28:57.522Z,10.30
2023-05-21T06:31:27.049Z,9.65
2023-05-21T06:33:55.383Z,10.18
2023-05-21T06:36:26.039Z,10.30
2023-05-21T06:38:54.077Z,9.50
2023-05-21T06:41:22.561Z,9.25
2023-05-21T06:43:50.903Z,10.32
2023-05-21T06:46:19.290Z,10.20
2023-05-21T06:48:49.022Z,9.95
2023-05-21T06:51:17.064Z,10.18
2023-05-21T06:53:45.274Z,10.30
2023-05-21T06:56:14.132Z,10.30
2023-05-21T06:58:42.192Z,10.50
2023-05-21T07:01:10.406Z,9.73
2023-05-21T07:03:39.221Z,10.80
2023-05-21T07:06:08.893Z,9.98
2023-05-21T07:08:37.355Z,10.23
2023-05-21T07:11:05.510Z,11.82
2023-05-21T07:13:33.679Z,10.73
2023-05-21T07:16:01.864Z,11.07
2023-05-21T07:18:29.933Z,10.07
2023-05-21T07:20:58.424Z,10.65
2023-05-21T07:23:28.100Z,11.23
2023-05-21T07:25:56.090Z,10.90
2023-05-21T07:28:24.170Z,10.48
2023-05-21T07:30:52.250Z,11.07
2023-05-21T07:33:23.272Z,10.48
2023-05-21T07:35:51.719Z,10.55
2023-05-21T07:38:20.777Z,10.02
2023-05-21T07:40:51.385Z,11.10
2023-05-21T07:43:40.966Z,11.60
2023-05-21T07:46:09.917Z,11.18
2023-05-21T07:48:41.452Z,11.45
2023-05-21T07:51:10.155Z,11.93
2023-05-21T07:53:39.194Z,10.75
2023-05-21T07:56:10.039Z,9.82
2023-05-21T07:58:54.783Z,10.75
2023-05-21T08:01:29.190Z,10.73
2023-05-21T08:03:57.883Z,11.40
2023-05-21T08:06:44.790Z,11.63
2023-05-21T08:09:14.448Z,11.35
2023-05-21T08:11:50.737Z,12.00
2023-05-21T08:14:34.859Z,11.05
2023-05-21T08:20:48.860Z,11.03
2023-05-21T08:46:45.513Z,12.23
2023-05-21T08:49:22.383Z,11.40
2023-05-21T08:52:01.323Z,11.95
2023-05-21T08:55:56.538Z,12.55
2023-05-21T08:58:39.929Z,12.82
2023-05-21T09:01:57.122Z,12.55
2023-05-21T09:08:48.163Z,12.32
2023-05-21T09:17:45.363Z,12.48
2023-05-21T09:19:43.778Z,12.75
2023-05-21T09:22:54.275Z,12.95
2023-05-21T09:28:58.727Z,13.68
2023-05-21T09:31:48.167Z,12.65
2023-05-21T09:34:36.880Z,13.52
2023-05-21T09:37:41.568Z,13.38
2023-05-21T09:40:14.208Z,14.00
2023-05-21T09:42:58.765Z,14.10
2023-05-21T09:45:56.565Z,13.88
2023-05-21T09:48:54.420Z,13.20
2023-05-21T09:51:30.392Z,13.45
2023-05-21T09:53:59.828Z,13.98
2023-05-21T09:56:32.615Z,13.93
2023-05-21T09:59:04.661Z,12.90
2023-05-21T10:01:36.314Z,14.43
2023-05-21T10:04:16.295Z,12.38
2023-05-21T10:06:45.474Z,12.68
2023-05-21T10:09:18.695Z,12.68
2023-05-21T10:11:49.103Z,13.10
2023-05-21T10:14:26.139Z,12.30
2023-05-21T10:16:57.540Z,12.85
2023-05-21T10:19:29.638Z,12.60
2023-05-21T10:22:24.407Z,13.48
2023-05-21T10:24:54.275Z,14.73
2023-05-21T10:27:26.925Z,13.60
2023-05-21T10:30:00.652Z,13.50
2023-05-21T10:32:31.871Z,13.70
2023-05-21T10:35:04.664Z,12.27
2023-05-21T10:37:33.496Z,14.05
2023-05-21T10:40:03.689Z,13.30
2023-05-21T10:43:01.395Z,13.00
2023-05-21T10:45:48.251Z,13.00
2023-05-21T10:48:45.224Z,13.52
2023-05-21T10:51:25.195Z,13.43
2023-05-21T10:54:35.040Z,14.05
2023-05-21T10:57:16.554Z,13.10
2023-05-21T10:59:47.095Z,16.43
2023-05-21T11:02:19.226Z,13.10
2023-05-21T11:07:24.880Z,13.73
2023-05-21T11:09:53.143Z,13.73
2023-05-21T11:12:23.419Z,12.55
2023-05-21T11:14:58.275Z,13.77
2023-05-21T11:17:51.604Z,14.57
2023-05-21T11:20:24.012Z,13.90
2023-05-21T11:22:53.984Z,13.13
2023-05-21T11:25:22.724Z,13.90
2023-05-21T11:27:51.025Z,13.75
2023-05-21T11:30:20.263Z,13.55
2023-05-21T11:33:20.663Z,12.63
2023-05-21T11:36:00.463Z,13.02
2023-05-21T11:38:31.291Z,12.18
2023-05-21T11:41:04.752Z,14.80
2023-05-21T11:43:36.030Z,14.63
2023-05-21T11:46:04.626Z,13.63
2023-05-21T11:48:34.555Z,14.32
2023-05-21T11:51:06.110Z,15.02
2023-05-21T11:53:39.241Z,14.15
2023-05-21T11:56:11.220Z,14.65
2023-05-21T11:58:43.808Z,14.27
2023-05-21T12:01:26.733Z,14.00
2023-05-21T12:03:56.433Z,14.35
2023-05-21T12:06:36.603Z,14.10
2023-05-21T12:09:10.469Z,13.75
2023-05-21T12:11:42.638Z,13.50
2023-05-21T12:16:44.110Z,14.57
2023-05-21T12:21:59.356Z,14.57
2023-05-21T12:24:31.190Z,13.80
2023-05-21T12:27:04.698Z,14.32
2023-05-21T12:29:40.698Z,13.88
2023-05-21T12:32:19.739Z,15.65
2023-05-21T12:34:52.157Z,14.85
2023-05-21T12:37:42.629Z,13.70
2023-05-21T12:40:16.105Z,14.27
2023-05-21T12:42:50.844Z,14.32
2023-05-21T12:45:45.561Z,14.40
2023-05-21T12:48:34.620Z,14.57
2023-05-21T12:51:36.133Z,13.07
2023-05-21T12:54:14.597Z,14.13
2023-05-21T12:56:46.978Z,14.40
2023-05-21T12:59:18.361Z,14.90
2023-05-21T13:01:51.575Z,15.18
2023-05-21T13:04:21.249Z,16.27
2023-05-21T13:06:52.416Z,13.60
2023-05-21T13:09:31.354Z,14.43
2023-05-21T13:12:42.225Z,14.07
2023-05-21T13:15:16.371Z,14.43
2023-05-21T13:17:56.802Z,14.20
2023-05-21T13:20:34.953Z,13.82
2023-05-21T13:23:23.290Z,14.38
2023-05-21T13:25:52.017Z,13.88
2023-05-21T13:28:26.931Z,13.50
2023-05-21T13:31:06.142Z,13.90
2023-05-21T13:33:45.061Z,14.25
2023-05-21T13:36:28.425Z,12.52
2023-05-21T13:38:58.255Z,13.77
2023-05-21T13:41:26.965Z,14.65
2023-05-21T13:43:55.491Z,15.65
2023-05-21T13:46:30.967Z,14.48
2023-05-21T13:49:03.920Z,15.10
2023-05-21T13:52:24.928Z,14.10
2023-05-21T13:54:29.024Z,13.32
2023-05-21T13:56:57.949Z,13.05
2023-05-21T13:59:26.961Z,13.20
2023-05-21T14:01:55.312Z,14.13
2023-05-21T14:04:29.784Z,14.45
2023-05-21T14:06:58.447Z,13.80
2023-05-21T14:09:28.941Z,14.18
2023-05-21T14:11:57.811Z,14.57
2023-05-21T14:14:29.367Z,13.90
2023-05-21T14:16:58.348Z,14.15
2023-05-21T14:19:27.641Z,14.32
2023-05-21T14:21:57.186Z,14.10
2023-05-21T14:24:25.773Z,15.48
2023-05-21T14:26:55.724Z,13.75
2023-05-21T14:29:24.306Z,12.98
2023-05-21T14:31:54.966Z,13.95
2023-05-21T14:34:23.390Z,12.15
2023-05-21T14:36:53.022Z,13.35
2023-05-21T14:39:23.131Z,14.18
2023-05-21T14:41:52.025Z,13.63
2023-05-21T14:44:23.226Z,14.60
2023-05-21T14:46:51.440Z,13.35
2023-05-21T14:49:22.244Z,13.05
2023-05-21T14:51:50.641Z,13.18
2023-05-21T14:54:20.899Z,13.43
2023-05-21T14:56:48.975Z,13.77
2023-05-21T14:59:17.217Z,13.60
2023-05-21T15:01:47.095Z,14.27
2023-05-21T15:04:15.386Z,13.48
2023-05-21T15:06:43.895Z,14.52
2023-05-21T15:09:11.862Z,14.13
2023-05-21T15:11:40.435Z,13.82
2023-05-21T15:14:08.624Z,14.18
2023-05-21T15:16:37.501Z,15.13
2023-05-21T15:19:07.298Z,15.45
2023-05-21T15:21:35.881Z,15.00
2023-05-21T15:24:04.143Z,14.52
2023-05-21T15:26:32.268Z,13.23
2023-05-21T15:29:00.354Z,14.35
2023-05-21T15:31:28.470Z,14.23
2023-05-21T15:33:58.017Z,14.18
2023-05-21T15:36:29.688Z,15.25
2023-05-21T15:38:58.007Z,14.07
2023-05-21T15:41:38.571Z,13.98
2023-05-21T15:44:11.669Z,14.95
2023-05-21T15:46:39.912Z,14.93
2023-05-21T15:49:19.340Z,14.05
2023-05-21T15:52:01.929Z,15.07
2023-05-21T15:54:30.310Z,14.80
2023-05-21T15:56:58.854Z,14.13
2023-05-21T15:59:27.670Z,14.65
2023-05-21T16:02:01.384Z,14.80
2023-05-21T16:04:29.726Z,14.18
2023-05-21T16:07:07.122Z,15.02
2023-05-21T16:09:35.933Z,15.10
2023-05-21T16:12:06.829Z,14.90
2023-05-21T16:14:35.105Z,14.32
2023-05-21T16:17:03.610Z,14.68
2023-05-21T16:19:35.400Z,13.70
2023-05-21T16:22:10.666Z,13.50
2023-05-21T16:24:39.631Z,14.10
2023-05-21T16:27:07.762Z,15.20
2023-05-21T16:29:37.076Z,15.07
2023-05-21T16:32:07.478Z,14.00
2023-05-21T16:34:39.489Z,13.88
2023-05-21T16:39:46.131Z,13.80
2023-05-21T16:42:32.911Z,13.77
2023-05-21T16:45:06.197Z,14.20
2023-05-21T16:47:34.998Z,14.23
2023-05-21T16:50:03.440Z,14.48
2023-05-21T16:52:33.090Z,14.35
2023-05-21T16:55:06.732Z,14.07
2023-05-21T16:57:39.532Z,13.95
2023-05-21T17:00:09.054Z,14.30
2023-05-21T17:02:37.387Z,14.02
2023-05-21T17:05:07.442Z,14.60
2023-05-21T17:07:37.327Z,14.00
2023-05-21T17:10:07.201Z,14.10
2023-05-21T17:12:35.903Z,13.55
2023-05-21T17:15:05.687Z,15.20
2023-05-21T17:17:33.869Z,13.88
2023-05-21T17:20:02.236Z,13.32
2023-05-21T17:22:30.126Z,14.15
2023-05-21T17:24:59.737Z,14.50
2023-05-21T17:27:27.821Z,14.18
2023-05-21T17:29:56.067Z,14.68
2023-05-21T17:32:29.054Z,14.98
2023-05-21T17:34:57.107Z,14.60
2023-05-21T17:37:25.067Z,14.23
2023-05-21T17:39:52.928Z,14.30
2023-05-21T17:42:22.307Z,15.30
2023-05-21T17:44:50.174Z,14.98
2023-05-21T17:47:17.934Z,14.93
2023-05-21T17:49:45.782Z,15.38
2023-05-21T17:52:13.669Z,15.57
2023-05-21T17:54:41.623Z,15.70
2023-05-21T17:57:09.532Z,16.27
2023-05-21T17:59:40.770Z,16.85
2023-05-21T18:02:09.011Z,15.90
2023-05-21T18:04:37.085Z,15.68
2023-05-21T18:07:05.480Z,15.80
2023-05-21T18:09:33.462Z,15.88
2023-05-21T18:12:01.596Z,15.65
2023-05-21T18:14:29.814Z,15.80
2023-05-21T18:16:59.081Z,16.08
2023-05-21T18:19:30.476Z,15.55
2023-05-21T18:21:58.558Z,16.20
2023-05-21T18:24:26.715Z,15.30
2023-05-21T18:26:54.623Z,15.88
2023-05-21T18:29:24.206Z,14.88
2023-05-21T18:31:52.253Z,17.38
2023-05-21T18:34:21.605Z,15.85
2023-05-21T18:36:53.782Z,15.70
2023-05-21T18:39:24.729Z,16.10
2023-05-21T18:42:01.594Z,15.68
2023-05-21T18:44:42.270Z,15.82
2023-05-21T18:47:11.663Z,16.05
2023-05-21T18:49:41.220Z,15.68
2023-05-21T18:52:09.302Z,15.98
2023-05-21T18:54:37.482Z,16.05
2023-05-21T18:57:08.345Z,16.73
2023-05-21T18:59:38.768Z,15.23
2023-05-21T19:02:08.959Z,16.75
2023-05-21T19:04:39.489Z,16.30
2023-05-21T19:07:10.920Z,15.98
2023-05-21T19:09:41.555Z,16.38
2023-05-21T19:14:59.073Z,15.82
2023-05-21T19:17:27.641Z,16.63
2023-05-21T19:19:58.602Z,17.05
2023-05-21T19:22:30.169Z,16.90
2023-05-21T19:25:00.174Z,16.52
2023-05-21T19:27:46.141Z,16.40
2023-05-21T19:30:25.180Z,17.25
2023-05-21T19:32:53.472Z,17.00
2023-05-21T19:35:49.393Z,17.02
2023-05-21T19:38:25.106Z,16.23
2023-05-21T19:40:53.771Z,18.45
2023-05-21T19:43:23.449Z,16.98
2023-05-21T19:45:54.131Z,17.10
2023-05-21T19:48:22.425Z,17.23
2023-05-21T19:52:05.528Z,18.13
2023-05-21T19:53:57.067Z,16.33
2023-05-21T19:56:34.878Z,17.75
2023-05-21T19:59:03.086Z,17.33
2023-05-21T20:01:34.762Z,17.80
2023-05-21T20:04:08.066Z,16.83
2023-05-21T20:06:40.462Z,18.08
2023-05-21T20:09:34.058Z,18.58
2023-05-21T20:12:02.182Z,19.60
2023-05-21T20:14:33.601Z,19.17
2023-05-21T20:17:02.029Z,18.73
2023-05-21T20:19:30.924Z,20.42
2023-05-21T20:21:58.665Z,21.63
2023-05-21T20:24:28.083Z,20.73
2023-05-21T20:26:55.984Z,19.60
2023-05-21T20:29:31.501Z,20.92
2023-05-21T20:31:59.389Z,19.95
2023-05-21T20:34:30.174Z,19.50
2023-05-21T20:37:11.733Z,18.40
2023-05-21T20:39:48.249Z,18.88
2023-05-21T20:42:27.116Z,18.50
2023-05-21T20:45:20.690Z,18.70
2023-05-21T20:48:05.415Z,20.45
2023-05-21T20:50:50.937Z,18.98
2023-05-21T20:53:19.235Z,19.05
2023-05-21T20:55:49.025Z,19.27
2023-05-21T20:58:23.104Z,19.85
2023-05-21T21:00:51.288Z,20.40
2023-05-21T21:03:23.616Z,20.23
2023-05-21T21:05:52.897Z,19.40
2023-05-21T21:08:27.802Z,19.98
2023-05-21T21:11:03.967Z,19.38
2023-05-21T21:13:31.791Z,19.75
2023-05-21T21:15:59.683Z,20.25
2023-05-21T21:18:28.742Z,20.75
2023-05-21T21:20:56.915Z,20.13
2023-05-21T21:23:25.598Z,19.58
2023-05-21T21:25:53.407Z,21.45
2023-05-21T21:28:39.566Z,21.50
2023-05-21T21:31:07.418Z,23.42
2023-05-21T21:33:35.307Z,21.55
2023-05-21T21:36:03.220Z,21.63
2023-05-21T21:38:33.309Z,20.27
2023-05-21T21:41:01.212Z,20.55
2023-05-21T21:43:29.114Z,17.98
2023-05-21T21:45:58.434Z,18.10
2023-05-21T21:48:26.300Z,16.25
2023-05-21T21:50:54.217Z,14.07
2023-05-21T21:53:22.015Z,16.27
2023-05-21T21:56:02.426Z,14.80
2023-05-21T21:58:30.169Z,15.82
2023-05-21T22:01:06.462Z,14.68
2023-05-21T22:03:35.227Z,12.68
2023-05-21T22:06:03.191Z,13.70
2023-05-21T22:08:31.091Z,12.10
2023-05-21T22:10:58.875Z,15.75
2023-05-21T22:13:27.846Z,16.02
2023-05-21T22:15:57.330Z,15.90
2023-05-21T22:18:39.377Z,15.45
2023-05-21T22:21:09.534Z,16.45
2023-05-21T22:23:48.822Z,17.60
2023-05-21T22:26:16.618Z,19.27
2023-05-21T22:28:49.213Z,17.45
2023-05-21T22:31:17.547Z,18.02
2023-05-21T22:33:46.882Z,18.08
2023-05-21T22:36:16.074Z,19.95
2023-05-21T22:38:44.579Z,18.15
2023-05-21T22:41:12.688Z,17.65
2023-05-21T22:43:42.100Z,20.35
2023-05-21T22:46:09.971Z,18.30
2023-05-21T22:48:38.208Z,18.98
2023-05-21T22:51:07.803Z,18.98
2023-05-21T22:53:35.799Z,18.70
2023-05-21T22:56:03.629Z,20.50
2023-05-21T22:58:34.987Z,17.35
2023-05-21T23:01:02.850Z,18.50
2023-05-21T23:03:31.118Z,22.38
2023-05-21T23:05:58.883Z,22.90
2023-05-21T23:08:34.200Z,21.73
2023-05-21T23:11:02.353Z,20.42
2023-05-21T23:13:30.149Z,21.73
2023-05-21T23:16:02.458Z,20.80
2023-05-21T23:20:57.982Z,23.90
2023-05-21T23:23:25.861Z,21.13
2023-05-21T23:25:57.565Z,25.73
2023-05-21T23:28:25.539Z,20.92
2023-05-21T23:30:53.763Z,26.65
2023-05-21T23:33:21.716Z,25.27
2023-05-21T23:35:49.567Z,24.90
2023-05-21T23:38:17.684Z,24.10
2023-05-21T23:40:45.477Z,20.98
2023-05-21T23:43:14.781Z,22.88
2023-05-21T23:45:42.707Z,22.98
2023-05-21T23:48:10.617Z,23.63
2023-05-21T23:50:38.617Z,26.90
2023-05-21T23:53:06.586Z,25.67
2023-05-21T23:55:34.436Z,26.88
2023-05-21T23:58:03.920Z,25.83
